• Join FlightAware (Why Join?)
  • Login
  • US Flag 
05:04AM EDT


 

Airport Tracker/Info


-or-


 

Live Flight TrackerFlight Track Log ✈ VH-AHX ✈ 27-Apr-2013 ✈ YSDU / DBO - YSBK / BWU

Flight Track Log - Related Links

Times and Time Zones

All times are in EDT time to prevent confusion due to time zone crossing. See the VH-AHX flight status page for this flight to view local times or setup timezone preferences in your user account.

Time Position Orientation Groundspeed Altitude Reporting Facility
EDT Latitude Longitude Course Direction KTS MPH feet Rate Location/Type
05:28AM -32.3669 148.7085 143° Southeast 9,000  Level Aus ATC (Calculated)
05:29AM -32.4326 148.7671 143° Southeast 9,000  Level Aus ATC (Calculated)
05:31AM -32.4844 148.8135 143° Southeast  Level FlightAware Approximate
05:32AM -32.5178 148.8434 143° Southeast  Level FlightAware Approximate
05:32AM -32.5556 148.8773 143° Southeast 9,000  Level Aus ATC (Calculated)
05:33AM -32.5512 148.8734 143° Southeast  Level FlightAware Approximate
05:34AM -32.6074 148.9238 143° Southeast  Level FlightAware Approximate
05:35AM -32.6408 148.9538 143° Southeast  Level FlightAware Approximate
05:36AM -32.6742 148.9838 143° Southeast  Level FlightAware Approximate
05:37AM -32.7076 149.0139 143° Southeast  Level FlightAware Approximate
05:37AM -32.5885 148.9063 143° Southeast 164 189 9,100  Level Aus ATC (RADAR)
05:38AM -32.7409 149.0440 143° Southeast  Level FlightAware Approximate
05:38AM -32.6117 148.9257 145° Southeast 175 201 9,000  Level Aus ATC (RADAR)
05:39AM -32.6448 148.9549 143° Southeast 180 207 9,000 60 Level Aus ATC (RADAR)
05:39AM -32.6550 148.9637 144° Southeast 180 207 9,100 -180 Climbing Aus ATC (RADAR)
05:40AM -32.6748 148.9817 143° Southeast 180 207 8,900 -180 Descending Aus ATC (RADAR)
05:41AM -32.7150 149.0169 144° Southeast 180 207 8,900 60 Level Aus ATC (RADAR)
05:41AM -32.7249 149.0253 144° Southeast 177 204 9,000  Climbing Aus ATC (RADAR)
05:42AM -32.7547 149.0533 142° Southeast 180 207 8,900 -120 Descending Aus ATC (RADAR)
05:42AM -32.7849 149.0797 144° Southeast 179 206 8,900 60 Level Aus ATC (RADAR)
05:43AM -32.8052 149.0977 143° Southeast 181 208 9,000 60 Climbing Aus ATC (RADAR)
05:44AM -32.8419 149.1311 143° Southeast 180 207 9,000  Level Aus ATC (RADAR)
05:44AM -32.8521 149.1395 145° Southeast 179 206 9,000 -180 Level Aus ATC (RADAR)
05:45AM -32.8718 149.1582 141° Southeast 180 207 8,900 -120 Descending Aus ATC (RADAR)
05:45AM -32.9083 149.1918 142° Southeast 181 208 8,900 60 Level Aus ATC (RADAR)
05:46AM -32.9284 149.2097 143° Southeast 179 206 9,000 120 Climbing Aus ATC (RADAR)
05:47AM -32.9721 149.2491 143° Southeast 181 208 9,100 -120 Climbing Aus ATC (RADAR)
05:47AM -32.9826 149.2582 144° Southeast 185 213 8,900  Descending Aus ATC (RADAR)
05:48AM -33.0058 149.2796 142° Southeast 181 208 9,100 60 Climbing Aus ATC (RADAR)
05:49AM -33.0427 149.3130 143° Southeast 181 208 9,000  Descending Aus ATC (RADAR)
05:49AM -33.0525 149.3221 142° Southeast 179 206 9,100 -180 Climbing Aus ATC (RADAR)
05:50AM -33.0729 149.3409 142° Southeast 183 211 8,900 -180 Descending Aus ATC (RADAR)
05:50AM -33.1099 149.3739 143° Southeast 180 207 8,900  Level Aus ATC (RADAR)
05:51AM -33.1330 149.3961 141° Southeast 182 209 8,900  Level Aus ATC (RADAR)
05:52AM -33.1738 149.4327 143° Southeast 182 209 8,900  Level Aus ATC (RADAR)
05:52AM -33.1839 149.4422 142° Southeast 183 211 8,900 240 Level Aus ATC (RADAR)
05:53AM -33.2073 149.4635 143° Southeast 180 207 9,100 60 Climbing Aus ATC (RADAR)
05:54AM -33.2446 149.4977 143° Southeast 182 209 9,000 -120 Descending Aus ATC (RADAR)
05:55AM -33.2750 149.5259 142° Southeast 183 211 8,900 -120 Descending Aus ATC (RADAR)
05:55AM -33.3121 149.5598 143° Southeast 181 208 8,900  Level Aus ATC (RADAR)
05:56AM -33.3327 149.5780 143° Southeast 183 211 8,900  Level Aus ATC (RADAR)
05:57AM -33.3627 149.6067 141° Southeast 182 209 8,900  Level Aus ATC (RADAR)
05:57AM -33.3935 149.6344 143° Southeast 183 211 8,900 60 Level Aus ATC (RADAR)
05:58AM -33.4137 149.6527 143° Southeast 182 209 9,000  Climbing Aus ATC (RADAR)
05:59AM -33.4441 149.6962 130° Southeast 183 211 8,900 -120 Descending Aus ATC (RADAR)
05:59AM -33.4515 149.7091 125° Southeast 183 211 8,900 240 Level Aus ATC (RADAR)
06:00AM -33.4716 149.7352 133° Southeast 181 208 9,100 60 Climbing Aus ATC (RADAR)
06:01AM -33.5038 149.7686 139° Southeast 183 211 9,000 -120 Descending Aus ATC (RADAR)
06:01AM -33.5264 149.7927 138° Southeast 184 212 9,000 60 Level Aus ATC (RADAR)
06:02AM -33.5549 149.8237 138° Southeast 184 212 9,100  Climbing Aus ATC (RADAR)
06:03AM -33.5798 149.8520 137° Southeast 183 211 9,000 -120 Descending Aus ATC (RADAR)
06:03AM -33.6017 149.8765 137° Southeast 183 211 9,000 -120 Level Aus ATC (RADAR)
06:04AM -33.6329 149.9123 136° Southeast 184 212 8,900  Descending Aus ATC (RADAR)
06:04AM -33.6420 149.9226 137° Southeast 182 209 9,000  Climbing Aus ATC (RADAR)
06:05AM -33.6602 149.9439 136° Southeast 181 208 8,900 -120 Descending Aus ATC (RADAR)
06:06AM -33.6947 149.9831 137° Southeast 185 213 8,900  Level Aus ATC (RADAR)
06:06AM -33.7222 150.0148 136° Southeast 182 209 8,900 60 Level Aus ATC (RADAR)
06:07AM -33.7624 150.0603 137° Southeast 181 208 9,100 60 Climbing Aus ATC (RADAR)
06:08AM -33.7843 150.0844 138° Southeast 180 207 9,000 -180 Descending Aus ATC (RADAR)
06:09AM -33.8061 150.1091 137° Southeast 182 209 8,900 -360 Descending Aus ATC (RADAR)
06:10AM -33.8612 150.1757 135° Southeast 187 215 8,300 -540 Descending Aus ATC (RADAR)
06:14AM -33.9981 150.3319 137° Southeast 182 209 6,300 -540 Descending Aus ATC (RADAR)
06:15AM -34.0573 150.3997 137° Southeast 161 185 5,500 -480 Descending Aus ATC (RADAR)
06:17AM -34.1047 150.4624 132° Southeast 137 158 4,700 -360 Descending Aus ATC (RADAR)
06:18AM -34.1228 150.5091 115° Southeast 117 135 4,500 -600 Descending Aus ATC (RADAR)
06:20AM -34.0935 150.5707 60° Northeast 117 135 2,900 -840 Descending Aus ATC (RADAR)
06:22AM -34.0642 150.6304 59° Northeast 95 109 1,400 -720 Descending Aus ATC (RADAR)
06:23AM -34.0462 150.6662 59° Northeast 87 100 500 -360 Descending Aus ATC (RADAR)
06:25AM -34.0331 150.6999 65° Northeast 92 106 600 180 Climbing Aus ATC (RADAR)
06:25AM -34.0303 150.7079 67° East 99 114 800 240 Climbing Aus ATC (RADAR)
06:27AM -34.0301 150.6615 270° West 129 148 1,200 60 Climbing Aus ATC (RADAR)
06:28AM -34.0477 150.6476 213° Southwest 114 131 1,000 -480 Descending Aus ATC (RADAR)
06:29AM -34.0445 150.6709 81° East 87 100 500 -660 Descending Aus ATC (RADAR)
06:29AM -34.0422 150.6772 66° East 83 96 300 -540 Descending Aus ATC (RADAR)
06:29AM -34.0389 150.6853 64° Northeast 81 93 200 540 Descending Aus ATC (RADAR)
06:30AM -34.0272 150.7178 66° East 105 121 1,100 780 Climbing Aus ATC (RADAR)
06:31AM -34.0144 150.7460 61° Northeast 114 131 1,700 600 Climbing Aus ATC (RADAR)
06:32AM -34.0013 150.7746 61° Northeast 117 135 2,100 180 Climbing Aus ATC (RADAR)
06:33AM -33.9907 150.8053 67° East 130 150 2,000 -300 Descending Aus ATC (RADAR)
06:33AM -33.9786 150.8331 62° Northeast 139 160 1,700 -360 Descending Aus ATC (RADAR)
06:34AM -33.9722 150.8427 51° Northeast 142 163 1,700 -300 Level Aus ATC (RADAR)
06:34AM -33.9594 150.8610 50° Northeast 141 162 1,500 -360 Descending Aus ATC (RADAR)
06:35AM -33.9423 150.8927 57° Northeast 134 154 1,300 -300 Descending Aus ATC (RADAR)
06:35AM -33.9388 150.9031 68° East 132 152 1,200 -360 Descending Aus ATC (RADAR)
06:36AM -33.9292 150.9250 62° Northeast 125 144 1,000 -360 Descending Aus ATC (RADAR)
06:37AM -33.9139 150.9500 54° Northeast 107 123 700 -360 Descending Aus ATC (RADAR)
06:37AM -33.9087 150.9583 53° Northeast 95 109 600 -480 Descending Aus ATC (RADAR)
06:38AM -33.9167 150.9778 116° Southeast 85 98 200 -540 Descending Aus ATC (RADAR)